Data for 01/15/2013

Time Sea-Level Adjusted Pressure Absolute Pressure Temperature Relative Humidity Dew Point   
(mb) (inHg) (mb) (inHg) (C) (F) (%) (C) (F)
00:05 1021 30.15 850 25.1 -8.6 16.6 71 -12.9 8.7
00:10 1021 30.15 850 25.1 -8.4 16.9 71 -12.9 8.9
00:15 1021 30.15 850 25.1 -8.4 16.8 71 -12.8 9
00:20 1021 30.15 850 25.1 -8.5 16.7 72 -12.8 9
00:25 1021 30.15 850 25.1 -8.5 16.7 71 -12.8 8.9
00:30 1021 30.15 850 25.1 -8.4 16.8 71 -12.7 9.1
00:35 1021 30.15 850 25.1 -8.4 16.9 72 -12.7 9.2
00:40 1021 30.15 850 25.1 -8.5 16.8 72 -12.7 9.1
00:45 1021 30.15 850 25.1 -8.5 16.8 72 -12.7 9.1
00:50 1021 30.15 850 25.1 -8.6 16.6 71 -12.9 8.8
00:55 1021 30.15 850 25.1 -8.6 16.5 70 -13.1 8.5
01:00 1021 30.15 850 25.1 -8.6 16.6 70 -13 8.5
01:05 1021 30.15 851 25.13 -8.6 16.6 72 -12.7 9.1
01:10 1021 30.15 851 25.13 -8.6 16.5 72 -12.7 9.1
01:15 1021 30.15 851 25.13 -8.6 16.5 73 -12.6 9.3
01:20 1021 30.15 851 25.13 -8.6 16.6 73 -12.5 9.4
01:25 1021 30.15 851 25.13 -8.4 17 74 -12.2 10
01:30 1022 30.18 851 25.13 -8.3 17.1 76 -11.8 10.7
01:35 1022 30.18 851 25.13 -8.3 17.1 78 -11.4 11.4
01:40 1022 30.18 851 25.13 -8.2 17.2 79 -11.3 11.7
01:45 1022 30.18 851 25.13 -8.2 17.2 80 -11.2 11.9
01:50 1022 30.18 851 25.13 -8.2 17.3 80 -11 12.2
01:55 1022 30.18 851 25.13 -8.1 17.4 80 -10.9 12.3
02:00 1022 30.18 851 25.13 -8.1 17.3 81 -10.8 12.5
02:05 1022 30.18 851 25.13 -8.4 16.9 80 -11.2 11.8
02:10 1022 30.18 851 25.13 -8.9 16.1 83 -11.2 11.9
02:15 1022 30.18 851 25.13 -8.5 16.7 82 -11 12.1
02:20 1022 30.18 851 25.13 -8.3 17 82 -10.9 12.3
02:25 1022 30.18 851 25.13 -8.3 17 82 -10.9 12.4
02:30 1022 30.18 851 25.13 -8.4 16.9 83 -10.8 12.5
02:35 1022 30.18 851 25.13 -8.4 16.8 83 -10.8 12.6
02:40 1022 30.18 851 25.13 -8.4 16.9 83 -10.9 12.5
02:45 1022 30.18 851 25.13 -8.2 17.2 81 -11 12.2
02:50 1022 30.18 851 25.13 -8.1 17.4 81 -10.9 12.5
02:55 1022 30.18 851 25.13 -8.1 17.5 81 -10.8 12.6
03:00 1022 30.18 851 25.13 -8.2 17.3 82 -10.8 12.6
03:05 1022 30.18 851 25.13 -8.2 17.3 81 -10.9 12.4
03:10 1022 30.18 851 25.13 -8.1 17.3 81 -10.9 12.5
03:15 1022 30.18 851 25.13 -8.1 17.4 81 -10.8 12.5
03:20 1022 30.18 851 25.13 -8.2 17.3 81 -10.9 12.4
03:25 1022 30.18 851 25.13 -8.1 17.4 79 -11.1 12.1
03:30 1022 30.18 852 25.16 -8.2 17.2 80 -11.1 12
03:35 1022 30.18 852 25.16 -8.4 17 80 -11.3 11.7
03:40 1022 30.18 852 25.16 -8.5 16.7 82 -11.1 12
03:45 1022 30.18 852 25.16 -8.5 16.6 83 -11 12.3
03:50 1022 30.18 852 25.16 -8.5 16.6 82 -11.1 12
03:55 1023 30.21 852 25.16 -8.5 16.7 83 -11 12.2
04:00 1023 30.21 852 25.16 -8.5 16.7 81 -11.1 11.9
04:05 1022 30.18 852 25.16 -8.5 16.8 82 -11 12.1
04:10 1023 30.21 852 25.16 -8.6 16.5 82 -11.2 11.9
04:15 1023 30.21 852 25.16 -8.8 16.2 83 -11.1 12
04:20 1023 30.21 852 25.16 -8.9 16.1 84 -11 12.1
04:25 1023 30.21 852 25.16 -8.9 16 85 -11 12.3
04:30 1023 30.21 852 25.16 -8.8 16.1 86 -10.7 12.7
04:35 1023 30.21 852 25.16 -8.8 16.2 87 -10.7 12.8
04:40 1023 30.21 852 25.16 -8.8 16.2 87 -10.6 12.9
04:45 1023 30.21 852 25.16 -8.8 16.2 87 -10.6 13
04:50 1023 30.21 852 25.16 -8.7 16.3 87 -10.5 13
04:55 1023 30.21 852 25.16 -8.8 16.2 86 -10.7 12.7
05:00 1023 30.21 852 25.16 -8.9 16 86 -10.8 12.6
05:05 1023 30.21 852 25.16 -8.9 16 85 -10.9 12.3
05:10 1023 30.21 852 25.16 -8.9 15.9 85 -11.1 12.1
05:15 1023 30.21 852 25.16 -9 15.8 85 -11.1 12
05:20 1023 30.21 852 25.16 -9.1 15.7 85 -11.1 12
05:25 1023 30.21 852 25.16 -9.1 15.7 85 -11.1 12
05:30 1023 30.21 852 25.16 -9.2 15.5 85 -11.2 11.8
05:35 1023 30.21 852 25.16 -9.3 15.3 86 -11.3 11.7
05:40 1023 30.21 852 25.16 -9.4 15 86 -11.3 11.6
05:45 1023 30.21 852 25.16 -9.5 14.9 87 -11.3 11.6
05:50 1023 30.21 852 25.16 -9.5 14.9 87 -11.3 11.6
05:55 1022 30.18 852 25.16 -9.5 14.9 87 -11.3 11.7
06:00 1022 30.18 852 25.16 -9.5 14.9 87 -11.3 11.7
06:05 1022 30.18 852 25.16 -9.5 15 88 -11.1 12
06:10 1023 30.21 852 25.16 -9.3 15.2 87 -11.1 12
06:15 1023 30.21 852 25.16 -9.2 15.4 86 -11.1 12
06:20 1023 30.21 852 25.16 -9 15.8 85 -11 12.1
06:25 1023 30.21 852 25.16 -9 15.8 86 -11 12.3
06:30 1023 30.21 852 25.16 -8.9 16.1 86 -10.8 12.5
06:35 1023 30.21 852 25.16 -8.5 16.7 84 -10.8 12.6
06:40 1023 30.21 852 25.16 -8.4 16.8 83 -10.8 12.6
06:45 1023 30.21 852 25.16 -8.5 16.6 84 -10.7 12.7
06:50 1023 30.21 852 25.16 -8.5 16.6 84 -10.7 12.7
06:55 1023 30.21 852 25.16 -8.4 17 83 -10.7 12.7
07:00 1023 30.21 852 25.16 -8.3 17.1 83 -10.7 12.7
07:05 1023 30.21 852 25.16 -8.1 17.4 81 -10.7 12.7
07:10 1023 30.21 852 25.16 -8 17.5 82 -10.7 12.8
07:15 1023 30.21 852 25.16 -8.3 17.1 82 -10.9 12.4
07:20 1023 30.21 852 25.16 -8.4 17 79 -11.4 11.5
07:25 1023 30.21 852 25.16 -8.5 16.8 79 -11.4 11.4
07:30 1023 30.21 852 25.16 -8.4 16.8 79 -11.4 11.4
07:35 1023 30.21 852 25.16 -8.4 16.8 79 -11.5 11.4
07:40 1023 30.21 852 25.16 -8.6 16.6 81 -11.2 11.8
07:45 1023 30.21 852 25.16 -8.7 16.4 83 -11 12.2
07:50 1023 30.21 852 25.16 -8.6 16.5 85 -10.7 12.7
07:55 1023 30.21 852 25.16 -8.6 16.6 83 -11 12.2
08:00 1023 30.21 852 25.16 -8.4 16.8 84 -10.6 12.8
08:05 1023 30.21 852 25.16 -8.4 16.9 85 -10.4 13.2
08:10 1023 30.21 852 25.16 -8.3 17 86 -10.3 13.4
08:15 1023 30.21 852 25.16 -8.2 17.2 86 -10.2 13.7
08:20 1023 30.21 852 25.16 -8 17.6 83 -10.4 13.3
08:25 1023 30.21 852 25.16 -7.5 18.5 82 -10 14
08:30 1023 30.21 852 25.16 -7.4 18.6 81 -10.1 13.8
08:35 1023 30.21 852 25.16 -7.5 18.5 83 -10 14.1
08:40 1023 30.21 852 25.16 -7.5 18.6 80 -10.4 13.3
08:45 1023 30.21 852 25.16 -7.4 18.6 81 -10.2 13.6
08:50 1023 30.21 852 25.16 -7.4 18.7 80 -10.2 13.7
08:55 1023 30.21 853 25.19 -7.4 18.8 81 -10 14
09:00 1023 30.21 853 25.19 -7.5 18.6 83 -9.9 14.2
09:05 1023 30.21 853 25.19 -7.8 18 85 -9.9 14.2
09:10 1023 30.21 853 25.19 -7.8 18 85 -9.9 14.1
09:15 1024 30.24 853 25.19 -7.7 18.1 82 -10.3 13.5
09:20 1024 30.24 853 25.19 -7.8 17.9 82 -10.3 13.4
09:25 1023 30.21 853 25.19 -7.7 18.2 81 -10.4 13.3
09:30 1023 30.21 853 25.19 -7.7 18.1 81 -10.4 13.4
09:35 1023 30.21 853 25.19 -7.8 17.9 82 -10.3 13.4
09:40 1023 30.21 853 25.19 -7.7 18.1 82 -10.3 13.5
09:45 1024 30.24 853 25.19 -7.7 18.2 82 -10.3 13.5
09:50 1024 30.24 853 25.19 -7.7 18.2 81 -10.3 13.4
09:55 1024 30.24 853 25.19 -8 17.7 82 -10.5 13.2
10:00 1024 30.24 853 25.19 -8.1 17.4 81 -10.8 12.6
10:05 1024 30.24 853 25.19 -8 17.6 81 -10.8 12.6
10:10 1024 30.24 853 25.19 -8.1 17.5 80 -11 12.3
10:15 1024 30.24 853 25.19 -8.2 17.3 80 -11.1 12.1
10:20 1024 30.24 853 25.19 -8.2 17.2 79 -11.2 11.8
10:25 1024 30.24 854 25.22 -8.2 17.2 80 -11.1 11.9
10:30 1025 30.27 854 25.22 -8.2 17.3 81 -10.9 12.3
10:35 1025 30.27 854 25.22 -8.3 17.1 80 -11.1 12
10:40 1025 30.27 854 25.22 -8.1 17.4 79 -11.2 11.8
10:45 1025 30.27 854 25.22 -8 17.6 78 -11.2 11.8
10:50 1025 30.27 854 25.22 -7.9 17.9 77 -11.1 12
10:55 1025 30.27 854 25.22 -7.7 18.1 77 -11.1 12
11:00 1025 30.27 854 25.22 -7.8 18.1 78 -11 12.2
11:05 1025 30.27 854 25.22 -7.7 18.2 77 -11.1 12
11:10 1025 30.27 854 25.22 -7.7 18.2 76 -11.2 11.8
11:15 1025 30.27 854 25.22 -7.6 18.4 75 -11.2 11.8
11:20 1025 30.27 854 25.22 -7.5 18.5 75 -11.1 12
11:25 1024 30.24 854 25.22 -7.4 18.7 74 -11.4 11.5
11:30 1024 30.24 854 25.22 -7.2 19.1 73 -11.3 11.7
11:35 1025 30.27 854 25.22 -7 19.5 72 -11.2 11.8
11:40 1025 30.27 854 25.22 -6.8 19.8 70 -11.3 11.6
11:45 1025 30.27 854 25.22 -6.8 19.7 71 -11.3 11.7
11:50 1025 30.27 854 25.22 -7 19.4 73 -11.1 11.9
11:55 1025 30.27 854 25.22 -7.1 19.2 73 -11.1 12.1
12:00 1025 30.27 854 25.22 -6.6 20.1 71 -10.9 12.3
12:05 1025 30.27 854 25.22 -6.3 20.6 71 -10.8 12.6
12:10 1025 30.27 854 25.22 -6.7 20 71 -11.1 12
12:15 1025 30.27 854 25.22 -7 19.4 72 -11.2 11.9
12:20 1025 30.27 854 25.22 -6.7 20 70 -11.3 11.6
12:25 1025 30.27 854 25.22 -6.2 20.8 68 -11.2 11.8
12:30 1025 30.27 854 25.22 -5.9 21.4 66 -11.2 11.8
12:35 1025 30.27 854 25.22 -6 21.1 65 -11.5 11.2
12:40 1025 30.27 854 25.22 -5.7 21.7 65 -11.2 11.8
12:45 1025 30.27 854 25.22 -5 23 62 -11.1 12
12:50 1025 30.27 854 25.22 -5.2 22.6 65 -10.9 12.4
12:55 1025 30.27 854 25.22 -5.1 22.8 64 -10.9 12.3
13:00 1025 30.27 854 25.22 -4.8 23.4 62 -11 12.2
13:05 1025 30.27 854 25.22 -4.3 24.2 61 -10.8 12.5
13:10 1025 30.27 854 25.22 -4.3 24.3 61 -10.7 12.7
13:15 1025 30.27 854 25.22 -4.6 23.8 62 -10.8 12.5
13:20 1025 30.27 854 25.22 -4.1 24.6 62 -10.3 13.4
13:25 1025 30.27 854 25.22 -3.7 25.3 61 -10.3 13.5
13:30 1025 30.27 854 25.22 -4 24.8 65 -9.7 14.6
13:35 1025 30.27 854 25.22 -4.8 23.4 66 -10.3 13.5
13:40 1025 30.27 854 25.22 -4.7 23.5 66 -10.1 13.8
13:45 1025 30.27 854 25.22 -4.2 24.4 64 -10 14
13:50 1025 30.27 854 25.22 -4.1 24.7 65 -9.6 14.7
13:55 1025 30.27 854 25.22 -4.6 23.8 66 -9.9 14.2
14:00 1025 30.27 854 25.22 -4.7 23.5 66 -10.2 13.7
14:05 1025 30.27 854 25.22 -4.5 23.9 65 -10.1 13.8
14:10 1025 30.27 854 25.22 -4.4 24.1 67 -9.6 14.7
14:15 1025 30.27 855 25.25 -4.5 23.9 66 -10 14.1
14:20 1025 30.27 855 25.25 -4.4 24.1 66 -9.8 14.4
14:25 1025 30.27 854 25.22 -4.2 24.4 68 -9.4 15.2
14:30 1025 30.27 854 25.22 -4.6 23.7 69 -9.4 15.1
14:35 1025 30.27 855 25.25 -4.5 23.9 67 -9.7 14.5
14:40 1025 30.27 854 25.22 -4.1 24.6 66 -9.6 14.7
14:45 1025 30.27 854 25.22 -3.8 25.2 63 -9.8 14.3
14:50 1025 30.27 854 25.22 -3.7 25.3 63 -9.7 14.5
14:55 1025 30.27 854 25.22 -3.4 26 62 -9.6 14.7
15:00 1025 30.27 854 25.22 -3.2 26.2 62 -9.4 15.1
15:05 1025 30.27 854 25.22 -3.2 26.2 58 -10.3 13.4
15:10 1025 30.27 854 25.22 -3.1 26.3 61 -9.7 14.6
15:15 1025 30.27 854 25.22 -3.1 26.4 61 -9.7 14.5
15:20 1025 30.27 855 25.25 -3.2 26.2 63 -9.3 15.2
15:25 1025 30.27 855 25.25 -3.2 26.3 62 -9.5 14.8
15:30 1025 30.27 855 25.25 -3.2 26.3 62 -9.4 15.1
15:35 1025 30.27 855 25.25 -3.1 26.5 61 -9.5 14.9
15:40 1025 30.27 855 25.25 -3 26.5 62 -9.3 15.2
15:45 1025 30.27 855 25.25 -3 26.5 63 -9.1 15.6
15:50 1025 30.27 855 25.25 -3 26.6 63 -9.1 15.6
15:55 1025 30.27 855 25.25 -3 26.6 62 -9.4 15.2
16:00 1026 30.3 855 25.25 -3.1 26.5 63 -9.2 15.4
16:05 1026 30.3 855 25.25 -2.9 26.7 61 -9.4 15.1
16:10 1026 30.3 855 25.25 -2.9 26.9 62 -9.2 15.4
16:15 1026 30.3 855 25.25 -2.9 26.8 63 -9.1 15.6
16:20 1026 30.3 855 25.25 -2.8 27 62 -9 15.7
16:25 1026 30.3 855 25.25 -2.7 27.1 63 -8.9 16.1
16:30 1026 30.3 855 25.25 -2.6 27.3 63 -8.8 16.1
16:35 1026 30.3 855 25.25 -2.6 27.2 62 -8.9 15.9
16:40 1026 30.3 855 25.25 -2.8 26.9 64 -8.8 16.2
16:45 1026 30.3 855 25.25 -2.9 26.8 62 -9.1 15.6
16:50 1026 30.3 855 25.25 -3.2 26.2 63 -9.3 15.3
16:55 1026 30.3 855 25.25 -3.4 25.9 62 -9.6 14.7
17:00 1026 30.3 855 25.25 -3.3 26.1 65 -8.9 15.9
17:05 1026 30.3 855 25.25 -3.1 26.4 66 -8.6 16.5
17:10 1026 30.3 855 25.25 -3.1 26.4 65 -8.8 16.2
17:15 1026 30.3 855 25.25 -3.3 26.1 64 -9.1 15.6
17:20 1026 30.3 855 25.25 -3.4 25.9 64 -9.3 15.3
17:25 1026 30.3 855 25.25 -3.4 25.8 65 -9.1 15.6
17:30 1026 30.3 855 25.25 -3.4 25.8 67 -8.7 16.3
17:35 1026 30.3 855 25.25 -3.3 26.1 64 -9.1 15.7
17:40 1026 30.3 855 25.25 -3.1 26.5 62 -9.3 15.2
17:45 1026 30.3 855 25.25 -3.2 26.3 63 -9.3 15.2
17:50 1026 30.3 855 25.25 -2.8 26.9 62 -9.2 15.4
17:55 1026 30.3 855 25.25 -2.3 27.9 61 -8.9 16
18:00 1026 30.3 855 25.25 -2.2 28.1 62 -8.6 16.5
18:05 1026 30.3 855 25.25 -2.5 27.5 63 -8.5 16.7
18:10 1026 30.3 855 25.25 -2.6 27.3 66 -8.1 17.3
18:15 1026 30.3 855 25.25 -2.9 26.8 67 -8.1 17.5
18:20 1026 30.3 855 25.25 -3.2 26.3 68 -8.3 17.1
18:25 1026 30.3 855 25.25 -3.1 26.4 66 -8.6 16.5
18:30 1026 30.3 855 25.25 -2.8 27 66 -8.2 17.2
18:35 1026 30.3 855 25.25 -2.7 27.2 67 -8 17.5
18:40 1026 30.3 855 25.25 -2.9 26.8 69 -7.8 18
18:45 1026 30.3 855 25.25 -3.3 26 68 -8.3 17
18:50 1026 30.3 855 25.25 -3.3 26.1 68 -8.4 16.8
18:55 1026 30.3 855 25.25 -3.1 26.3 71 -7.7 18.1
19:00 1026 30.3 855 25.25 -3.2 26.3 69 -8.1 17.4
19:05 1026 30.3 855 25.25 -3 26.5 66 -8.4 16.8
19:10 1026 30.3 855 25.25 -2.8 27 65 -8.5 16.7
19:15 1026 30.3 855 25.25 -2.4 27.6 67 -7.8 18
19:20 1026 30.3 855 25.25 -2.5 27.5 67 -7.9 17.9
19:25 1026 30.3 855 25.25 -3 26.7 66 -8.5 16.6
19:30 1026 30.3 855 25.25 -3.3 26.1 68 -8.4 16.9
19:35 1026 30.3 855 25.25 -3.5 25.6 67 -8.8 16.2
19:40 1026 30.3 855 25.25 -3.6 25.5 66 -9 15.8
19:45 1026 30.3 855 25.25 -3.6 25.4 65 -9.3 15.2
19:50 1026 30.3 855 25.25 -3.4 25.9 63 -9.5 15
19:55 1026 30.3 855 25.25 -3.5 25.8 65 -9.2 15.4
20:00 1026 30.3 855 25.25 -3.4 25.9 63 -9.4 15.2
20:05 1026 30.3 855 25.25 -3.3 26.1 64 -9.2 15.4
20:10 1026 30.3 855 25.25 -3.3 26.1 65 -9 15.8
20:15 1026 30.3 856 25.28 -3.4 25.8 65 -9 15.7
20:20 1026 30.3 856 25.28 -3.6 25.6 65 -9.2 15.5
20:25 1026 30.3 855 25.25 -3.9 25.1 64 -9.7 14.5
20:30 1026 30.3 855 25.25 -3.8 25.1 65 -9.5 14.9
20:35 1026 30.3 855 25.25 -3.7 25.3 65 -9.3 15.3
20:40 1026 30.3 855 25.25 -3.9 25 68 -9 15.9
20:45 1026 30.3 855 25.25 -4.3 24.2 74 -8.3 17.1
20:50 1026 30.3 855 25.25 -5 22.9 79 -8.1 17.5
20:55 1026 30.3 856 25.28 -5.3 22.5 79 -8.3 17.1
21:00 1026 30.3 855 25.25 -5.5 22.1 80 -8.4 16.9
21:05 1026 30.3 855 25.25 -5.8 21.5 80 -8.8 16.2
21:10 1026 30.3 855 25.25 -6 21.2 79 -9 15.7
21:15 1026 30.3 855 25.25 -6.2 20.8 81 -9 15.7
21:20 1026 30.3 855 25.25 -6.4 20.5 81 -9.1 15.6
21:25 1026 30.3 855 25.25 -6.4 20.5 81 -9.1 15.7
21:30 1026 30.3 855 25.25 -6.5 20.3 82 -9.1 15.6
21:35 1026 30.3 855 25.25 -6.6 20.1 82 -9.2 15.5
21:40 1026 30.3 855 25.25 -6.7 19.9 82 -9.3 15.3
21:45 1026 30.3 855 25.25 -6.9 19.6 83 -9.4 15.1
21:50 1026 30.3 855 25.25 -6.9 19.6 83 -9.3 15.2
21:55 1026 30.3 855 25.25 -6.9 19.6 83 -9.4 15.2
22:00 1026 30.3 855 25.25 -7.1 19.3 83 -9.5 14.9
22:05 1026 30.3 855 25.25 -7.3 18.9 84 -9.5 14.8
22:10 1026 30.3 855 25.25 -7.4 18.8 85 -9.5 14.8
22:15 1026 30.3 855 25.25 -7.4 18.6 85 -9.6 14.8
22:20 1026 30.3 855 25.25 -7.2 19 83 -9.6 14.7
22:25 1026 30.3 855 25.25 -7.2 19 84 -9.5 14.9
22:30 1026 30.3 855 25.25 -7.3 18.9 83 -9.7 14.6
22:35 1026 30.3 855 25.25 -7.3 18.8 83 -9.8 14.4
22:40 1026 30.3 855 25.25 -7.6 18.3 84 -9.9 14.2
22:45 1026 30.3 855 25.25 -7.8 18.1 84 -10 14
22:50 1026 30.3 855 25.25 -7.8 18 84 -10 13.9
22:55 1026 30.3 855 25.25 -7.7 18.1 84 -10 13.9
23:00 1026 30.3 855 25.25 -7.8 17.9 85 -10 14.1
23:05 1026 30.3 855 25.25 -7.9 17.9 85 -10 14
23:10 1026 30.3 855 25.25 -7.9 17.8 84 -10.1 13.9
23:15 1026 30.3 855 25.25 -8 17.6 86 -10 14
23:20 1026 30.3 856 25.28 -8.1 17.4 85 -10.2 13.6
23:25 1026 30.3 856 25.28 -8 17.6 85 -10.1 13.8
23:30 1026 30.3 856 25.28 -7.6 18.4 83 -10 13.9
23:35 1026 30.3 856 25.28 -7.6 18.4 82 -10.1 13.8
23:40 1027 30.33 856 25.28 -7.9 17.8 83 -10.3 13.4
23:45 1027 30.33 856 25.28 -7.9 17.8 85 -10 14
23:50 1026 30.3 856 25.28 -8 17.7 84 -10.2 13.7
23:55 1026 30.3 856 25.28 -8.3 17.1 87 -10.1 13.8
24:00 1026 30.3 856 25.28 -8.1 17.4 83 -10.5 13.1